sensor_id;sensor_type;location;lat;lon;timestamp;temperature;humidity
8643;DHT22;4359;49.358;11.256;2022-09-09T00:07:16;10.80;99.90
8643;DHT22;4359;49.358;11.256;2022-09-09T00:09:49;10.70;99.90
8643;DHT22;4359;49.358;11.256;2022-09-09T00:15:18;10.70;99.90
8643;DHT22;4359;49.358;11.256;2022-09-09T00:21:13;10.70;99.90
8643;DHT22;4359;49.358;11.256;2022-09-09T00:23:47;10.60;99.90
8643;DHT22;4359;49.358;11.256;2022-09-09T00:31:31;10.60;99.90
8643;DHT22;4359;49.358;11.256;2022-09-09T00:36:36;10.60;99.90
8643;DHT22;4359;49.358;11.256;2022-09-09T00:39:03;10.60;99.90
8643;DHT22;4359;49.358;11.256;2022-09-09T00:44:33;10.50;99.90
8643;DHT22;4359;49.358;11.256;2022-09-09T00:50:00;10.40;99.90
8643;DHT22;4359;49.358;11.256;2022-09-09T00:55:25;10.40;99.90
8643;DHT22;4359;49.358;11.256;2022-09-09T00:57:53;10.40;99.90
8643;DHT22;4359;49.358;11.256;2022-09-09T01:05:27;10.40;99.90
8643;DHT22;4359;49.358;11.256;2022-09-09T01:07:58;10.50;99.90
8643;DHT22;4359;49.358;11.256;2022-09-09T01:10:39;10.50;99.90
8643;DHT22;4359;49.358;11.256;2022-09-09T01:13:14;10.60;99.90
8643;DHT22;4359;49.358;11.256;2022-09-09T01:15:42;10.60;99.90
8643;DHT22;4359;49.358;11.256;2022-09-09T01:18:13;10.60;99.90
8643;DHT22;4359;49.358;11.256;2022-09-09T01:20:49;10.60;99.90
8643;DHT22;4359;49.358;11.256;2022-09-09T01:26:21;10.40;99.90
8643;DHT22;4359;49.358;11.256;2022-09-09T01:28:50;10.40;99.90
8643;DHT22;4359;49.358;11.256;2022-09-09T01:31:22;10.40;99.90
8643;DHT22;4359;49.358;11.256;2022-09-09T01:33:48;10.40;99.90
8643;DHT22;4359;49.358;11.256;2022-09-09T01:36:27;10.30;99.90
8643;DHT22;4359;49.358;11.256;2022-09-09T01:38:55;10.30;99.90
8643;DHT22;4359;49.358;11.256;2022-09-09T01:41:21;10.30;99.90
8643;DHT22;4359;49.358;11.256;2022-09-09T01:43:47;10.20;99.90
8643;DHT22;4359;49.358;11.256;2022-09-09T01:46:13;10.20;99.90
8643;DHT22;4359;49.358;11.256;2022-09-09T01:48:40;10.20;99.90
8643;DHT22;4359;49.358;11.256;2022-09-09T01:51:08;10.20;99.90
8643;DHT22;4359;49.358;11.256;2022-09-09T01:53:36;10.30;99.90
8643;DHT22;4359;49.358;11.256;2022-09-09T01:59:05;10.40;99.90
8643;DHT22;4359;49.358;11.256;2022-09-09T02:04:54;10.60;99.90
8643;DHT22;4359;49.358;11.256;2022-09-09T02:07:45;10.70;99.90
8643;DHT22;4359;49.358;11.256;2022-09-09T02:10:19;10.70;99.90
8643;DHT22;4359;49.358;11.256;2022-09-09T02:12:53;10.70;99.90
8643;DHT22;4359;49.358;11.256;2022-09-09T02:15:33;10.70;99.90
8643;DHT22;4359;49.358;11.256;2022-09-09T02:18:03;10.60;99.90
8643;DHT22;4359;49.358;11.256;2022-09-09T02:20:32;10.70;99.90
8643;DHT22;4359;49.358;11.256;2022-09-09T02:22:59;10.70;99.90
8643;DHT22;4359;49.358;11.256;2022-09-09T02:25:28;10.70;99.90
8643;DHT22;4359;49.358;11.256;2022-09-09T02:27:55;10.70;99.90
8643;DHT22;4359;49.358;11.256;2022-09-09T02:30:24;10.70;99.90
8643;DHT22;4359;49.358;11.256;2022-09-09T02:32:52;10.70;99.90
8643;DHT22;4359;49.358;11.256;2022-09-09T02:35:23;10.70;99.90
8643;DHT22;4359;49.358;11.256;2022-09-09T02:37:52;10.70;99.90
8643;DHT22;4359;49.358;11.256;2022-09-09T02:40:19;10.70;99.90
8643;DHT22;4359;49.358;11.256;2022-09-09T02:42:48;10.70;99.90
8643;DHT22;4359;49.358;11.256;2022-09-09T02:45:19;10.70;99.90
8643;DHT22;4359;49.358;11.256;2022-09-09T02:50:54;10.80;99.90
8643;DHT22;4359;49.358;11.256;2022-09-09T02:53:28;10.90;99.90
8643;DHT22;4359;49.358;11.256;2022-09-09T02:58:28;10.90;99.90
8643;DHT22;4359;49.358;11.256;2022-09-09T03:00:54;10.90;99.90
8643;DHT22;4359;49.358;11.256;2022-09-09T03:03:22;10.80;99.90
8643;DHT22;4359;49.358;11.256;2022-09-09T03:05:48;10.80;99.90
8643;DHT22;4359;49.358;11.256;2022-09-09T03:08:15;10.70;99.90
8643;DHT22;4359;49.358;11.256;2022-09-09T03:10:41;10.60;99.90
8643;DHT22;4359;49.358;11.256;2022-09-09T03:13:07;10.60;99.90
8643;DHT22;4359;49.358;11.256;2022-09-09T03:15:34;10.60;99.90
8643;DHT22;4359;49.358;11.256;2022-09-09T03:18:00;10.60;99.90
8643;DHT22;4359;49.358;11.256;2022-09-09T03:20:27;10.70;99.90
8643;DHT22;4359;49.358;11.256;2022-09-09T03:22:54;10.80;99.90
8643;DHT22;4359;49.358;11.256;2022-09-09T03:25:20;10.80;99.90
8643;DHT22;4359;49.358;11.256;2022-09-09T03:27:49;10.90;99.90
8643;DHT22;4359;49.358;11.256;2022-09-09T03:30:15;10.80;99.90
8643;DHT22;4359;49.358;11.256;2022-09-09T03:32:41;10.70;99.90
8643;DHT22;4359;49.358;11.256;2022-09-09T03:35:07;10.70;99.90
8643;DHT22;4359;49.358;11.256;2022-09-09T03:37:33;10.60;99.90
8643;DHT22;4359;49.358;11.256;2022-09-09T03:39:58;10.50;99.90
8643;DHT22;4359;49.358;11.256;2022-09-09T03:42:25;10.50;99.90
8643;DHT22;4359;49.358;11.256;2022-09-09T03:44:50;10.50;99.90
8643;DHT22;4359;49.358;11.256;2022-09-09T03:47:20;10.60;99.90
8643;DHT22;4359;49.358;11.256;2022-09-09T03:49:47;10.60;99.90
8643;DHT22;4359;49.358;11.256;2022-09-09T03:52:14;10.60;99.90
8643;DHT22;4359;49.358;11.256;2022-09-09T03:54:40;10.70;99.90
8643;DHT22;4359;49.358;11.256;2022-09-09T03:57:06;10.70;99.90
8643;DHT22;4359;49.358;11.256;2022-09-09T03:59:32;10.80;99.90
8643;DHT22;4359;49.358;11.256;2022-09-09T04:01:57;10.70;99.90
8643;DHT22;4359;49.358;11.256;2022-09-09T04:04:24;10.70;99.90
8643;DHT22;4359;49.358;11.256;2022-09-09T04:06:51;10.80;99.90
8643;DHT22;4359;49.358;11.256;2022-09-09T04:09:17;10.80;99.90
8643;DHT22;4359;49.358;11.256;2022-09-09T04:11:42;10.80;99.90
8643;DHT22;4359;49.358;11.256;2022-09-09T04:14:08;11.00;99.90
8643;DHT22;4359;49.358;11.256;2022-09-09T04:16:34;11.00;99.90
8643;DHT22;4359;49.358;11.256;2022-09-09T04:19:02;11.00;99.90
8643;DHT22;4359;49.358;11.256;2022-09-09T04:21:30;11.00;99.90
8643;DHT22;4359;49.358;11.256;2022-09-09T04:23:55;11.00;99.90
8643;DHT22;4359;49.358;11.256;2022-09-09T04:26:21;11.00;99.90
8643;DHT22;4359;49.358;11.256;2022-09-09T04:28:47;11.00;99.90
8643;DHT22;4359;49.358;11.256;2022-09-09T04:31:17;11.00;99.90
8643;DHT22;4359;49.358;11.256;2022-09-09T04:33:44;10.90;99.90
8643;DHT22;4359;49.358;11.256;2022-09-09T04:36:09;10.80;99.90
8643;DHT22;4359;49.358;11.256;2022-09-09T04:38:35;10.80;99.90
8643;DHT22;4359;49.358;11.256;2022-09-09T04:41:01;10.80;99.90
8643;DHT22;4359;49.358;11.256;2022-09-09T04:43:27;10.80;99.90
8643;DHT22;4359;49.358;11.256;2022-09-09T04:45:52;10.70;99.90
8643;DHT22;4359;49.358;11.256;2022-09-09T04:48:19;10.70;99.90
8643;DHT22;4359;49.358;11.256;2022-09-09T04:50:54;10.70;99.90
8643;DHT22;4359;49.358;11.256;2022-09-09T04:53:19;10.70;99.90
8643;DHT22;4359;49.358;11.256;2022-09-09T04:55:45;10.70;99.90
8643;DHT22;4359;49.358;11.256;2022-09-09T04:58:11;10.80;99.90
8643;DHT22;4359;49.358;11.256;2022-09-09T05:00:37;10.80;99.90
8643;DHT22;4359;49.358;11.256;2022-09-09T05:03:04;10.90;99.90
8643;DHT22;4359;49.358;11.256;2022-09-09T05:05:31;10.90;99.90
8643;DHT22;4359;49.358;11.256;2022-09-09T05:08:06;11.00;99.90
8643;DHT22;4359;49.358;11.256;2022-09-09T05:10:34;11.00;99.90
8643;DHT22;4359;49.358;11.256;2022-09-09T05:13:00;11.10;99.90
8643;DHT22;4359;49.358;11.256;2022-09-09T05:15:25;11.10;99.90
8643;DHT22;4359;49.358;11.256;2022-09-09T05:17:51;11.20;99.90
8643;DHT22;4359;49.358;11.256;2022-09-09T05:20:19;11.30;99.90
8643;DHT22;4359;49.358;11.256;2022-09-09T05:22:45;11.30;99.90
8643;DHT22;4359;49.358;11.256;2022-09-09T05:25:11;11.30;99.90
8643;DHT22;4359;49.358;11.256;2022-09-09T05:27:36;11.40;99.90
8643;DHT22;4359;49.358;11.256;2022-09-09T05:30:03;11.50;99.90
8643;DHT22;4359;49.358;11.256;2022-09-09T05:32:30;11.60;99.90
8643;DHT22;4359;49.358;11.256;2022-09-09T05:34:58;11.60;99.90
8643;DHT22;4359;49.358;11.256;2022-09-09T05:37:24;11.60;99.90
8643;DHT22;4359;49.358;11.256;2022-09-09T05:39:50;11.70;99.90
8643;DHT22;4359;49.358;11.256;2022-09-09T05:42:16;11.80;99.90
8643;DHT22;4359;49.358;11.256;2022-09-09T05:44:42;12.00;99.90
8643;DHT22;4359;49.358;11.256;2022-09-09T05:47:08;12.20;99.90
8643;DHT22;4359;49.358;11.256;2022-09-09T05:49:34;12.40;99.90
8643;DHT22;4359;49.358;11.256;2022-09-09T05:52:00;12.60;99.90
8643;DHT22;4359;49.358;11.256;2022-09-09T05:54:26;12.70;99.90
8643;DHT22;4359;49.358;11.256;2022-09-09T05:56:51;12.70;99.90
8643;DHT22;4359;49.358;11.256;2022-09-09T05:59:19;12.70;99.90
8643;DHT22;4359;49.358;11.256;2022-09-09T06:01:45;12.70;99.90
8643;DHT22;4359;49.358;11.256;2022-09-09T06:04:11;12.50;99.90
8643;DHT22;4359;49.358;11.256;2022-09-09T06:06:38;12.40;99.90
8643;DHT22;4359;49.358;11.256;2022-09-09T06:09:05;12.40;99.90
8643;DHT22;4359;49.358;11.256;2022-09-09T06:11:39;12.40;99.90
8643;DHT22;4359;49.358;11.256;2022-09-09T06:14:05;12.40;99.90
8643;DHT22;4359;49.358;11.256;2022-09-09T06:16:33;12.40;99.90
8643;DHT22;4359;49.358;11.256;2022-09-09T06:19:00;12.50;99.90
8643;DHT22;4359;49.358;11.256;2022-09-09T06:21:28;12.60;99.90
8643;DHT22;4359;49.358;11.256;2022-09-09T06:23:55;12.70;99.90
8643;DHT22;4359;49.358;11.256;2022-09-09T06:26:23;12.80;99.90
8643;DHT22;4359;49.358;11.256;2022-09-09T06:28:51;12.90;99.90
8643;DHT22;4359;49.358;11.256;2022-09-09T06:31:20;13.10;99.90
8643;DHT22;4359;49.358;11.256;2022-09-09T06:33:48;13.30;99.90
8643;DHT22;4359;49.358;11.256;2022-09-09T06:38:45;13.80;99.90
8643;DHT22;4359;49.358;11.256;2022-09-09T06:41:13;14.00;99.90
8643;DHT22;4359;49.358;11.256;2022-09-09T06:43:39;14.20;99.90
8643;DHT22;4359;49.358;11.256;2022-09-09T06:46:12;14.30;99.90
8643;DHT22;4359;49.358;11.256;2022-09-09T06:48:42;14.40;99.90
8643;DHT22;4359;49.358;11.256;2022-09-09T06:53:38;14.40;99.90
8643;DHT22;4359;49.358;11.256;2022-09-09T06:58:35;14.80;99.90
8643;DHT22;4359;49.358;11.256;2022-09-09T07:01:06;14.90;99.90
8643;DHT22;4359;49.358;11.256;2022-09-09T07:03:32;14.90;99.90
8643;DHT22;4359;49.358;11.256;2022-09-09T07:05:59;14.90;99.90
8643;DHT22;4359;49.358;11.256;2022-09-09T07:08:25;15.10;99.90
8643;DHT22;4359;49.358;11.256;2022-09-09T07:10:51;15.30;99.90
8643;DHT22;4359;49.358;11.256;2022-09-09T07:13:23;15.40;99.90
8643;DHT22;4359;49.358;11.256;2022-09-09T07:15:51;15.60;99.90
8643;DHT22;4359;49.358;11.256;2022-09-09T07:18:17;15.70;99.90
8643;DHT22;4359;49.358;11.256;2022-09-09T07:20:42;15.90;99.90
8643;DHT22;4359;49.358;11.256;2022-09-09T07:23:08;16.00;99.90
8643;DHT22;4359;49.358;11.256;2022-09-09T07:25:34;16.10;99.90
8643;DHT22;4359;49.358;11.256;2022-09-09T07:27:59;16.30;99.90
8643;DHT22;4359;49.358;11.256;2022-09-09T07:30:25;16.50;99.90
8643;DHT22;4359;49.358;11.256;2022-09-09T07:32:51;16.70;99.90
8643;DHT22;4359;49.358;11.256;2022-09-09T07:35:17;16.90;99.90
8643;DHT22;4359;49.358;11.256;2022-09-09T07:37:43;17.00;99.90
8643;DHT22;4359;49.358;11.256;2022-09-09T07:40:10;17.10;99.90
8643;DHT22;4359;49.358;11.256;2022-09-09T07:42:36;17.30;99.90
8643;DHT22;4359;49.358;11.256;2022-09-09T07:45:03;17.40;99.90
8643;DHT22;4359;49.358;11.256;2022-09-09T07:47:29;17.50;99.90
8643;DHT22;4359;49.358;11.256;2022-09-09T07:49:55;17.50;99.90
8643;DHT22;4359;49.358;11.256;2022-09-09T07:52:21;17.50;99.90
8643;DHT22;4359;49.358;11.256;2022-09-09T07:54:47;17.70;99.90
8643;DHT22;4359;49.358;11.256;2022-09-09T07:57:12;17.80;99.90
8643;DHT22;4359;49.358;11.256;2022-09-09T07:59:38;17.90;99.90
8643;DHT22;4359;49.358;11.256;2022-09-09T08:02:04;17.90;99.90
8643;DHT22;4359;49.358;11.256;2022-09-09T08:04:30;17.80;99.90
8643;DHT22;4359;49.358;11.256;2022-09-09T08:06:57;17.80;99.90
8643;DHT22;4359;49.358;11.256;2022-09-09T08:09:24;17.90;99.90
8643;DHT22;4359;49.358;11.256;2022-09-09T08:11:52;18.20;99.90
8643;DHT22;4359;49.358;11.256;2022-09-09T08:14:18;18.40;99.90
8643;DHT22;4359;49.358;11.256;2022-09-09T08:16:46;18.50;99.90
8643;DHT22;4359;49.358;11.256;2022-09-09T08:19:12;18.80;99.90
8643;DHT22;4359;49.358;11.256;2022-09-09T08:21:39;19.40;99.90
8643;DHT22;4359;49.358;11.256;2022-09-09T08:24:06;19.50;99.90
8643;DHT22;4359;49.358;11.256;2022-09-09T08:26:34;19.60;99.90
8643;DHT22;4359;49.358;11.256;2022-09-09T08:29:01;19.70;99.90
8643;DHT22;4359;49.358;11.256;2022-09-09T08:31:34;19.80;99.90
8643;DHT22;4359;49.358;11.256;2022-09-09T08:34:00;20.20;99.90
8643;DHT22;4359;49.358;11.256;2022-09-09T08:36:31;20.50;99.90
8643;DHT22;4359;49.358;11.256;2022-09-09T08:38:59;20.50;99.90
8643;DHT22;4359;49.358;11.256;2022-09-09T08:41:37;20.50;99.90
8643;DHT22;4359;49.358;11.256;2022-09-09T08:47:07;21.40;99.90
8643;DHT22;4359;49.358;11.256;2022-09-09T08:52:30;21.60;99.90
8643;DHT22;4359;49.358;11.256;2022-09-09T08:55:50;21.00;99.90
8643;DHT22;4359;49.358;11.256;2022-09-09T08:57:53;21.10;99.90
8643;DHT22;4359;49.358;11.256;2022-09-09T09:00:19;21.90;99.90
8643;DHT22;4359;49.358;11.256;2022-09-09T09:03:04;22.00;99.90
8643;DHT22;4359;49.358;11.256;2022-09-09T09:11:00;21.00;99.90
8643;DHT22;4359;49.358;11.256;2022-09-09T09:13:45;20.60;99.90
8643;DHT22;4359;49.358;11.256;2022-09-09T09:16:41;20.10;99.90
8643;DHT22;4359;49.358;11.256;2022-09-09T09:19:15;19.50;99.90
8643;DHT22;4359;49.358;11.256;2022-09-09T09:24:23;19.40;99.90
8643;DHT22;4359;49.358;11.256;2022-09-09T09:26:51;19.60;99.90
8643;DHT22;4359;49.358;11.256;2022-09-09T09:29:19;19.50;99.90
8643;DHT22;4359;49.358;11.256;2022-09-09T09:31:59;19.50;99.90
8643;DHT22;4359;49.358;11.256;2022-09-09T09:34:27;19.40;99.90
8643;DHT22;4359;49.358;11.256;2022-09-09T09:36:57;19.40;99.90
8643;DHT22;4359;49.358;11.256;2022-09-09T09:39:29;19.50;99.90
8643;DHT22;4359;49.358;11.256;2022-09-09T09:41:56;19.80;99.90
8643;DHT22;4359;49.358;11.256;2022-09-09T09:44:32;20.40;99.90
8643;DHT22;4359;49.358;11.256;2022-09-09T09:47:21;21.40;99.90
8643;DHT22;4359;49.358;11.256;2022-09-09T09:50:00;21.70;99.90
8643;DHT22;4359;49.358;11.256;2022-09-09T09:52:28;21.30;99.90
8643;DHT22;4359;49.358;11.256;2022-09-09T09:54:57;21.20;99.90
8643;DHT22;4359;49.358;11.256;2022-09-09T09:57:27;21.00;99.90
8643;DHT22;4359;49.358;11.256;2022-09-09T10:00:14;21.80;99.90
8643;DHT22;4359;49.358;11.256;2022-09-09T10:02:41;22.90;99.90
8643;DHT22;4359;49.358;11.256;2022-09-09T10:05:22;24.00;99.90
8643;DHT22;4359;49.358;11.256;2022-09-09T10:19:00;24.20;99.90
8643;DHT22;4359;49.358;11.256;2022-09-09T10:27:17;22.30;99.90
8643;DHT22;4359;49.358;11.256;2022-09-09T10:56:38;25.50;99.90
8643;DHT22;4359;49.358;11.256;2022-09-09T10:59:20;26.30;99.90
8643;DHT22;4359;49.358;11.256;2022-09-09T11:01:58;27.00;99.90
8643;DHT22;4359;49.358;11.256;2022-09-09T11:05:14;26.30;99.90
8643;DHT22;4359;49.358;11.256;2022-09-09T11:07:47;25.30;99.90
8643;DHT22;4359;49.358;11.256;2022-09-09T11:10:25;24.40;99.90
8643;DHT22;4359;49.358;11.256;2022-09-09T11:13:01;23.90;99.90
8643;DHT22;4359;49.358;11.256;2022-09-09T11:15:38;23.60;99.90
8643;DHT22;4359;49.358;11.256;2022-09-09T11:18:08;23.30;99.90
8643;DHT22;4359;49.358;11.256;2022-09-09T11:20:37;23.20;99.90
8643;DHT22;4359;49.358;11.256;2022-09-09T11:23:13;22.90;99.90
8643;DHT22;4359;49.358;11.256;2022-09-09T11:25:48;22.60;99.90
8643;DHT22;4359;49.358;11.256;2022-09-09T11:34:02;22.10;99.90
8643;DHT22;4359;49.358;11.256;2022-09-09T11:36:46;21.90;99.90
8643;DHT22;4359;49.358;11.256;2022-09-09T11:42:27;21.20;99.90
8643;DHT22;4359;49.358;11.256;2022-09-09T11:44:52;21.20;99.90
8643;DHT22;4359;49.358;11.256;2022-09-09T11:47:28;21.10;99.90
8643;DHT22;4359;49.358;11.256;2022-09-09T11:52:43;20.60;99.90
8643;DHT22;4359;49.358;11.256;2022-09-09T11:55:28;20.20;99.90
8643;DHT22;4359;49.358;11.256;2022-09-09T12:00:45;20.10;99.90
8643;DHT22;4359;49.358;11.256;2022-09-09T12:08:45;20.80;99.90
8643;DHT22;4359;49.358;11.256;2022-09-09T12:11:12;21.00;99.90
8643;DHT22;4359;49.358;11.256;2022-09-09T12:13:54;21.00;99.90
8643;DHT22;4359;49.358;11.256;2022-09-09T12:16:37;21.10;99.90
8643;DHT22;4359;49.358;11.256;2022-09-09T12:19:15;21.10;99.90
8643;DHT22;4359;49.358;11.256;2022-09-09T12:24:11;21.10;99.90
8643;DHT22;4359;49.358;11.256;2022-09-09T12:26:47;21.10;99.90
8643;DHT22;4359;49.358;11.256;2022-09-09T12:32:10;21.00;99.90
8643;DHT22;4359;49.358;11.256;2022-09-09T12:37:41;20.40;99.90
8643;DHT22;4359;49.358;11.256;2022-09-09T12:40:26;20.00;99.90
8643;DHT22;4359;49.358;11.256;2022-09-09T12:42:52;19.30;99.90
8643;DHT22;4359;49.358;11.256;2022-09-09T12:45:22;18.30;99.90
8643;DHT22;4359;49.358;11.256;2022-09-09T12:48:09;17.90;99.90
8643;DHT22;4359;49.358;11.256;2022-09-09T12:50:48;17.70;99.90
8643;DHT22;4359;49.358;11.256;2022-09-09T12:53:29;17.50;99.90
8643;DHT22;4359;49.358;11.256;2022-09-09T12:56:08;17.30;99.90
8643;DHT22;4359;49.358;11.256;2022-09-09T12:58:36;17.50;99.90
8643;DHT22;4359;49.358;11.256;2022-09-09T13:01:04;17.60;99.90
8643;DHT22;4359;49.358;11.256;2022-09-09T13:03:32;17.80;99.90
8643;DHT22;4359;49.358;11.256;2022-09-09T13:06:09;17.80;99.90
8643;DHT22;4359;49.358;11.256;2022-09-09T13:08:35;17.70;99.90
8643;DHT22;4359;49.358;11.256;2022-09-09T13:11:06;17.80;99.90
8643;DHT22;4359;49.358;11.256;2022-09-09T13:13:40;18.10;99.90
8643;DHT22;4359;49.358;11.256;2022-09-09T13:16:18;18.20;99.90
8643;DHT22;4359;49.358;11.256;2022-09-09T13:18:44;18.60;99.90
8643;DHT22;4359;49.358;11.256;2022-09-09T13:21:10;19.00;99.90
8643;DHT22;4359;49.358;11.256;2022-09-09T13:23:37;19.80;99.90
8643;DHT22;4359;49.358;11.256;2022-09-09T13:26:20;20.40;99.90
8643;DHT22;4359;49.358;11.256;2022-09-09T13:28:47;20.90;99.90
8643;DHT22;4359;49.358;11.256;2022-09-09T13:31:29;20.80;99.90
8643;DHT22;4359;49.358;11.256;2022-09-09T13:33:56;20.50;99.90
8643;DHT22;4359;49.358;11.256;2022-09-09T13:36:34;19.90;99.90
8643;DHT22;4359;49.358;11.256;2022-09-09T13:39:02;19.10;99.90
8643;DHT22;4359;49.358;11.256;2022-09-09T13:41:36;18.90;99.90
8643;DHT22;4359;49.358;11.256;2022-09-09T13:44:19;18.80;99.90
8643;DHT22;4359;49.358;11.256;2022-09-09T13:46:45;18.50;99.90
8643;DHT22;4359;49.358;11.256;2022-09-09T13:51:42;17.90;99.90
8643;DHT22;4359;49.358;11.256;2022-09-09T13:54:11;17.80;99.90
8643;DHT22;4359;49.358;11.256;2022-09-09T13:56:38;17.70;99.90
8643;DHT22;4359;49.358;11.256;2022-09-09T13:59:06;17.70;99.90
8643;DHT22;4359;49.358;11.256;2022-09-09T14:01:34;17.70;99.90
8643;DHT22;4359;49.358;11.256;2022-09-09T14:04:00;17.60;99.90
8643;DHT22;4359;49.358;11.256;2022-09-09T14:06:26;17.50;99.90
8643;DHT22;4359;49.358;11.256;2022-09-09T14:08:52;17.40;99.90
8643;DHT22;4359;49.358;11.256;2022-09-09T14:11:20;17.40;99.90
8643;DHT22;4359;49.358;11.256;2022-09-09T14:13:47;17.20;99.90
8643;DHT22;4359;49.358;11.256;2022-09-09T14:16:18;16.90;99.90
8643;DHT22;4359;49.358;11.256;2022-09-09T14:18:45;16.80;99.90
8643;DHT22;4359;49.358;11.256;2022-09-09T14:21:11;17.00;99.90
8643;DHT22;4359;49.358;11.256;2022-09-09T14:23:37;17.70;99.90
8643;DHT22;4359;49.358;11.256;2022-09-09T14:26:04;18.50;99.90
8643;DHT22;4359;49.358;11.256;2022-09-09T14:28:30;18.70;99.90
8643;DHT22;4359;49.358;11.256;2022-09-09T14:30:59;18.60;99.90
8643;DHT22;4359;49.358;11.256;2022-09-09T14:33:25;18.40;99.90
8643;DHT22;4359;49.358;11.256;2022-09-09T14:35:58;18.50;99.90
8643;DHT22;4359;49.358;11.256;2022-09-09T14:38:26;18.70;99.90
8643;DHT22;4359;49.358;11.256;2022-09-09T14:40:53;18.60;99.90
8643;DHT22;4359;49.358;11.256;2022-09-09T14:43:19;18.50;99.90
8643;DHT22;4359;49.358;11.256;2022-09-09T14:45:46;18.20;99.90
8643;DHT22;4359;49.358;11.256;2022-09-09T14:48:14;17.90;99.90
8643;DHT22;4359;49.358;11.256;2022-09-09T14:50:40;17.60;99.90
8643;DHT22;4359;49.358;11.256;2022-09-09T14:53:07;17.40;99.90
8643;DHT22;4359;49.358;11.256;2022-09-09T14:55:34;17.20;99.90
8643;DHT22;4359;49.358;11.256;2022-09-09T14:58:00;17.30;99.90
8643;DHT22;4359;49.358;11.256;2022-09-09T15:00:25;17.80;99.90
8643;DHT22;4359;49.358;11.256;2022-09-09T15:02:54;18.10;99.90
8643;DHT22;4359;49.358;11.256;2022-09-09T15:05:20;18.60;99.90
8643;DHT22;4359;49.358;11.256;2022-09-09T15:07:46;18.80;99.90
8643;DHT22;4359;49.358;11.256;2022-09-09T15:10:14;18.80;99.90
8643;DHT22;4359;49.358;11.256;2022-09-09T15:12:39;18.60;99.90
8643;DHT22;4359;49.358;11.256;2022-09-09T15:15:07;18.40;99.90
8643;DHT22;4359;49.358;11.256;2022-09-09T15:17:33;18.20;99.90
8643;DHT22;4359;49.358;11.256;2022-09-09T15:19:59;18.10;99.90
8643;DHT22;4359;49.358;11.256;2022-09-09T15:22:25;18.10;99.90
8643;DHT22;4359;49.358;11.256;2022-09-09T15:24:51;18.00;99.90
8643;DHT22;4359;49.358;11.256;2022-09-09T15:27:17;18.00;99.90
8643;DHT22;4359;49.358;11.256;2022-09-09T15:29:43;17.90;99.90
8643;DHT22;4359;49.358;11.256;2022-09-09T15:32:09;18.00;99.90
8643;DHT22;4359;49.358;11.256;2022-09-09T15:34:35;18.00;99.90
8643;DHT22;4359;49.358;11.256;2022-09-09T15:37:00;17.90;99.90
8643;DHT22;4359;49.358;11.256;2022-09-09T15:39:26;17.90;99.90
8643;DHT22;4359;49.358;11.256;2022-09-09T15:41:52;17.90;99.90
8643;DHT22;4359;49.358;11.256;2022-09-09T15:44:18;18.00;99.90
8643;DHT22;4359;49.358;11.256;2022-09-09T15:46:52;17.90;99.90
8643;DHT22;4359;49.358;11.256;2022-09-09T15:49:23;17.80;99.90
8643;DHT22;4359;49.358;11.256;2022-09-09T15:52:00;17.90;99.90
8643;DHT22;4359;49.358;11.256;2022-09-09T15:54:31;17.90;99.90
8643;DHT22;4359;49.358;11.256;2022-09-09T15:56:59;17.90;99.90
8643;DHT22;4359;49.358;11.256;2022-09-09T15:59:27;17.90;99.90
8643;DHT22;4359;49.358;11.256;2022-09-09T16:01:53;17.90;99.90
8643;DHT22;4359;49.358;11.256;2022-09-09T16:04:21;17.80;99.90
8643;DHT22;4359;49.358;11.256;2022-09-09T16:06:55;17.90;99.90
8643;DHT22;4359;49.358;11.256;2022-09-09T16:09:21;17.90;99.90
8643;DHT22;4359;49.358;11.256;2022-09-09T16:11:47;17.90;99.90
8643;DHT22;4359;49.358;11.256;2022-09-09T16:14:14;18.00;99.90
8643;DHT22;4359;49.358;11.256;2022-09-09T16:16:41;18.10;99.90
8643;DHT22;4359;49.358;11.256;2022-09-09T16:19:09;18.10;99.90
8643;DHT22;4359;49.358;11.256;2022-09-09T16:21:38;18.00;99.90
8643;DHT22;4359;49.358;11.256;2022-09-09T16:24:06;18.00;99.90
8643;DHT22;4359;49.358;11.256;2022-09-09T16:26:34;18.00;99.90
8643;DHT22;4359;49.358;11.256;2022-09-09T16:29:00;18.00;99.90
8643;DHT22;4359;49.358;11.256;2022-09-09T16:31:27;18.00;99.90
8643;DHT22;4359;49.358;11.256;2022-09-09T16:33:54;18.00;99.90
8643;DHT22;4359;49.358;11.256;2022-09-09T16:36:24;18.00;99.90
8643;DHT22;4359;49.358;11.256;2022-09-09T16:38:55;18.00;99.90
8643;DHT22;4359;49.358;11.256;2022-09-09T16:41:23;18.00;99.90
8643;DHT22;4359;49.358;11.256;2022-09-09T16:43:56;17.90;99.90
8643;DHT22;4359;49.358;11.256;2022-09-09T16:46:23;17.80;99.90
8643;DHT22;4359;49.358;11.256;2022-09-09T16:48:50;17.90;99.90
8643;DHT22;4359;49.358;11.256;2022-09-09T16:51:18;17.80;99.90
8643;DHT22;4359;49.358;11.256;2022-09-09T16:53:44;17.80;99.90
8643;DHT22;4359;49.358;11.256;2022-09-09T16:56:12;17.80;99.90
8643;DHT22;4359;49.358;11.256;2022-09-09T16:58:38;17.70;99.90
8643;DHT22;4359;49.358;11.256;2022-09-09T17:01:05;17.70;99.90
8643;DHT22;4359;49.358;11.256;2022-09-09T17:03:31;17.50;99.90
8643;DHT22;4359;49.358;11.256;2022-09-09T17:05:58;17.40;99.90
8643;DHT22;4359;49.358;11.256;2022-09-09T17:08:30;17.30;99.90
8643;DHT22;4359;49.358;11.256;2022-09-09T17:10:57;17.10;99.90
8643;DHT22;4359;49.358;11.256;2022-09-09T17:13:24;17.00;99.90
8643;DHT22;4359;49.358;11.256;2022-09-09T17:15:50;17.00;99.90
8643;DHT22;4359;49.358;11.256;2022-09-09T17:18:16;16.90;99.90
8643;DHT22;4359;49.358;11.256;2022-09-09T17:20:42;16.80;99.90
8643;DHT22;4359;49.358;11.256;2022-09-09T17:23:10;16.70;99.90
8643;DHT22;4359;49.358;11.256;2022-09-09T17:25:36;16.60;99.90
8643;DHT22;4359;49.358;11.256;2022-09-09T17:28:02;16.60;99.90
8643;DHT22;4359;49.358;11.256;2022-09-09T17:30:34;16.50;99.90
8643;DHT22;4359;49.358;11.256;2022-09-09T17:33:00;16.40;99.90
8643;DHT22;4359;49.358;11.256;2022-09-09T17:35:26;16.30;99.90
8643;DHT22;4359;49.358;11.256;2022-09-09T17:37:55;16.20;99.90
8643;DHT22;4359;49.358;11.256;2022-09-09T17:40:22;16.20;99.90
8643;DHT22;4359;49.358;11.256;2022-09-09T17:42:47;16.10;99.90
8643;DHT22;4359;49.358;11.256;2022-09-09T17:45:14;16.00;99.90
8643;DHT22;4359;49.358;11.256;2022-09-09T17:47:40;15.90;99.90
8643;DHT22;4359;49.358;11.256;2022-09-09T17:50:09;15.80;99.90
8643;DHT22;4359;49.358;11.256;2022-09-09T17:52:36;15.70;99.90
8643;DHT22;4359;49.358;11.256;2022-09-09T17:55:04;15.60;99.90
8643;DHT22;4359;49.358;11.256;2022-09-09T17:57:29;15.50;99.90
8643;DHT22;4359;49.358;11.256;2022-09-09T17:59:55;15.40;99.90
8643;DHT22;4359;49.358;11.256;2022-09-09T18:02:21;15.30;99.90
8643;DHT22;4359;49.358;11.256;2022-09-09T18:04:46;15.30;99.90
8643;DHT22;4359;49.358;11.256;2022-09-09T18:07:12;15.20;99.90
8643;DHT22;4359;49.358;11.256;2022-09-09T18:09:38;15.00;99.90
8643;DHT22;4359;49.358;11.256;2022-09-09T18:12:05;15.00;99.90
8643;DHT22;4359;49.358;11.256;2022-09-09T18:14:31;14.90;99.90
8643;DHT22;4359;49.358;11.256;2022-09-09T18:16:58;14.90;99.90
8643;DHT22;4359;49.358;11.256;2022-09-09T18:19:26;14.70;99.90
8643;DHT22;4359;49.358;11.256;2022-09-09T18:21:53;14.60;99.90